sensor_id;sensor_type;location;lat;lon;timestamp;pressure;altitude;pressure_sealevel;temperature;humidity
12969;BME280;6549;53.128;8.182;2023-09-07T00:00:11;101971.91;;;19.84;100.00
12969;BME280;6549;53.128;8.182;2023-09-07T00:03:13;101976.34;;;19.81;100.00
12969;BME280;6549;53.128;8.182;2023-09-07T00:06:13;101969.19;;;19.80;100.00
12969;BME280;6549;53.128;8.182;2023-09-07T00:09:14;101968.81;;;19.78;100.00
12969;BME280;6549;53.128;8.182;2023-09-07T00:12:16;101963.66;;;19.77;100.00
12969;BME280;6549;53.128;8.182;2023-09-07T00:15:16;101968.44;;;19.76;100.00
12969;BME280;6549;53.128;8.182;2023-09-07T00:18:19;101968.44;;;19.76;100.00
12969;BME280;6549;53.128;8.182;2023-09-07T00:21:19;101963.66;;;19.77;100.00
12969;BME280;6549;53.128;8.182;2023-09-07T00:24:19;101953.88;;;19.61;100.00
12969;BME280;6549;53.128;8.182;2023-09-07T00:27:19;101942.47;;;19.52;100.00
12969;BME280;6549;53.128;8.182;2023-09-07T00:30:20;101950.47;;;19.50;100.00
12969;BME280;6549;53.128;8.182;2023-09-07T00:33:20;101951.72;;;19.46;100.00
12969;BME280;6549;53.128;8.182;2023-09-07T00:36:20;101952.16;;;19.41;100.00
12969;BME280;6549;53.128;8.182;2023-09-07T00:39:21;101944.56;;;19.41;100.00
12969;BME280;6549;53.128;8.182;2023-09-07T00:42:21;101945.78;;;19.40;100.00
12969;BME280;6549;53.128;8.182;2023-09-07T00:45:22;101946.22;;;19.35;100.00
12969;BME280;6549;53.128;8.182;2023-09-07T00:48:22;101936.34;;;19.30;100.00
12969;BME280;6549;53.128;8.182;2023-09-07T00:51:23;101941.59;;;19.25;100.00
12969;BME280;6549;53.128;8.182;2023-09-07T00:54:23;101936.50;;;19.16;100.00
12969;BME280;6549;53.128;8.182;2023-09-07T00:57:24;101943.75;;;19.10;100.00
12969;BME280;6549;53.128;8.182;2023-09-07T01:00:25;101942.22;;;19.06;100.00
12969;BME280;6549;53.128;8.182;2023-09-07T01:03:25;101941.47;;;19.02;100.00
12969;BME280;6549;53.128;8.182;2023-09-07T01:09:30;101948.19;;;19.04;100.00
12969;BME280;6549;53.128;8.182;2023-09-07T01:12:32;101947.81;;;19.02;100.00
12969;BME280;6549;53.128;8.182;2023-09-07T01:15:32;101949.03;;;19.01;100.00
12969;BME280;6549;53.128;8.182;2023-09-07T01:18:33;101951.03;;;19.01;100.00
12969;BME280;6549;53.128;8.182;2023-09-07T01:21:38;101949.06;;;18.98;100.00
12969;BME280;6549;53.128;8.182;2023-09-07T01:24:39;101941.53;;;18.95;100.00
12969;BME280;6549;53.128;8.182;2023-09-07T01:27:40;101943.16;;;18.92;100.00
12969;BME280;6549;53.128;8.182;2023-09-07T01:30:40;101941.56;;;18.91;100.00
12969;BME280;6549;53.128;8.182;2023-09-07T01:33:40;101946.34;;;18.91;100.00
12969;BME280;6549;53.128;8.182;2023-09-07T01:36:41;101942.75;;;18.90;100.00
12969;BME280;6549;53.128;8.182;2023-09-07T01:39:41;101939.97;;;18.90;100.00
12969;BME280;6549;53.128;8.182;2023-09-07T01:42:41;101937.66;;;18.85;100.00
12969;BME280;6549;53.128;8.182;2023-09-07T01:45:42;101945.25;;;18.81;100.00
12969;BME280;6549;53.128;8.182;2023-09-07T01:48:42;101937.72;;;18.78;100.00
12969;BME280;6549;53.128;8.182;2023-09-07T01:51:42;101939.34;;;18.75;100.00
12969;BME280;6549;53.128;8.182;2023-09-07T01:54:43;101939.75;;;18.74;100.00
12969;BME280;6549;53.128;8.182;2023-09-07T01:57:43;101941.34;;;18.75;100.00
12969;BME280;6549;53.128;8.182;2023-09-07T02:00:44;101945.28;;;18.77;100.00
12969;BME280;6549;53.128;8.182;2023-09-07T02:03:44;101945.63;;;18.83;100.00
12969;BME280;6549;53.128;8.182;2023-09-07T02:06:44;101947.19;;;18.88;100.00
12969;BME280;6549;53.128;8.182;2023-09-07T02:09:45;101943.16;;;18.92;100.00
12969;BME280;6549;53.128;8.182;2023-09-07T02:12:46;101946.69;;;18.96;100.00
12969;BME280;6549;53.128;8.182;2023-09-07T02:15:46;101939.91;;;18.97;100.00
12969;BME280;6549;53.128;8.182;2023-09-07T02:18:49;101943.06;;;18.99;100.00
12969;BME280;6549;53.128;8.182;2023-09-07T02:21:49;101937.50;;;18.99;100.00
12969;BME280;6549;53.128;8.182;2023-09-07T02:24:51;101938.28;;;19.00;100.00
12969;BME280;6549;53.128;8.182;2023-09-07T02:27:51;101944.31;;;18.95;100.00
12969;BME280;6549;53.128;8.182;2023-09-07T02:30:52;101944.75;;;18.93;100.00
12969;BME280;6549;53.128;8.182;2023-09-07T02:33:52;101948.34;;;18.90;100.00
12969;BME280;6549;53.128;8.182;2023-09-07T02:36:53;101943.59;;;18.87;100.00
12969;BME280;6549;53.128;8.182;2023-09-07T02:39:53;101945.97;;;18.89;100.00
12969;BME280;6549;53.128;8.182;2023-09-07T02:42:53;101939.28;;;18.82;100.00
12969;BME280;6549;53.128;8.182;2023-09-07T02:45:54;101935.72;;;18.78;100.00
12969;BME280;6549;53.128;8.182;2023-09-07T02:48:54;101936.97;;;18.74;100.00
12969;BME280;6549;53.128;8.182;2023-09-07T02:51:57;101937.06;;;18.67;100.00
12969;BME280;6549;53.128;8.182;2023-09-07T02:54:58;101945.06;;;18.61;100.00
12969;BME280;6549;53.128;8.182;2023-09-07T02:57:58;101939.47;;;18.61;100.00
12969;BME280;6549;53.128;8.182;2023-09-07T03:00:59;101944.25;;;18.61;100.00
12969;BME280;6549;53.128;8.182;2023-09-07T03:03:59;101942.66;;;18.60;100.00
12969;BME280;6549;53.128;8.182;2023-09-07T03:07:01;101948.63;;;18.62;100.00
12969;BME280;6549;53.128;8.182;2023-09-07T03:10:02;101946.63;;;18.62;100.00
12969;BME280;6549;53.128;8.182;2023-09-07T03:13:02;101950.63;;;18.61;100.00
12969;BME280;6549;53.128;8.182;2023-09-07T03:16:04;101945.44;;;18.60;100.00
12969;BME280;6549;53.128;8.182;2023-09-07T03:19:04;101946.28;;;18.57;100.00
12969;BME280;6549;53.128;8.182;2023-09-07T03:22:04;101939.13;;;18.56;100.00
12969;BME280;6549;53.128;8.182;2023-09-07T03:25:05;101947.47;;;18.56;100.00
12969;BME280;6549;53.128;8.182;2023-09-07T03:28:05;101943.50;;;18.57;100.00
12969;BME280;6549;53.128;8.182;2023-09-07T03:31:06;101949.88;;;18.50;100.00
12969;BME280;6549;53.128;8.182;2023-09-07T03:34:06;101943.94;;;18.48;100.00
12969;BME280;6549;53.128;8.182;2023-09-07T03:37:07;101953.09;;;18.49;100.00
12969;BME280;6549;53.128;8.182;2023-09-07T03:40:11;101951.50;;;18.48;100.00
12969;BME280;6549;53.128;8.182;2023-09-07T03:43:11;101942.31;;;18.51;100.00
12969;BME280;6549;53.128;8.182;2023-09-07T03:46:12;101945.13;;;18.47;100.00
12969;BME280;6549;53.128;8.182;2023-09-07T03:49:12;101945.56;;;18.42;100.00
12969;BME280;6549;53.128;8.182;2023-09-07T03:52:12;101955.56;;;18.39;100.00
12969;BME280;6549;53.128;8.182;2023-09-07T03:55:14;101955.59;;;18.36;100.00
12969;BME280;6549;53.128;8.182;2023-09-07T03:58:14;101952.44;;;18.30;100.00
12969;BME280;6549;53.128;8.182;2023-09-07T04:01:14;101942.91;;;18.31;100.00
12969;BME280;6549;53.128;8.182;2023-09-07T04:04:15;101949.66;;;18.30;100.00
12969;BME280;6549;53.128;8.182;2023-09-07T04:07:15;101950.84;;;18.29;100.00
12969;BME280;6549;53.128;8.182;2023-09-07T04:10:16;101948.06;;;18.29;100.00
12969;BME280;6549;53.128;8.182;2023-09-07T04:13:16;101952.03;;;18.28;100.00
12969;BME280;6549;53.128;8.182;2023-09-07T04:16:17;101958.03;;;18.27;100.00
12969;BME280;6549;53.128;8.182;2023-09-07T04:19:17;101951.69;;;18.26;100.00
12969;BME280;6549;53.128;8.182;2023-09-07T04:22:17;101962.38;;;18.28;100.00
12969;BME280;6549;53.128;8.182;2023-09-07T04:25:18;101956.84;;;18.24;100.00
12969;BME280;6549;53.128;8.182;2023-09-07T04:28:18;101955.72;;;18.15;100.00
12969;BME280;6549;53.128;8.182;2023-09-07T04:31:18;101957.41;;;18.05;100.00
12969;BME280;6549;53.128;8.182;2023-09-07T04:34:20;101956.25;;;17.99;100.00
12969;BME280;6549;53.128;8.182;2023-09-07T04:37:21;101955.84;;;18.01;100.00
12969;BME280;6549;53.128;8.182;2023-09-07T04:40:23;101959.03;;;17.99;100.00
12969;BME280;6549;53.128;8.182;2023-09-07T04:43:23;101955.06;;;17.97;100.00
12969;BME280;6549;53.128;8.182;2023-09-07T04:46:24;101956.66;;;17.94;100.00
12969;BME280;6549;53.128;8.182;2023-09-07T04:49:24;101951.88;;;17.98;100.00
12969;BME280;6549;53.128;8.182;2023-09-07T04:52:25;101956.63;;;18.01;100.00
12969;BME280;6549;53.128;8.182;2023-09-07T04:55:25;101956.63;;;18.01;100.00
12969;BME280;6549;53.128;8.182;2023-09-07T04:58:25;101948.66;;;18.03;100.00
12969;BME280;6549;53.128;8.182;2023-09-07T05:01:26;101950.25;;;18.04;100.00
12969;BME280;6549;53.128;8.182;2023-09-07T05:04:26;101960.97;;;18.02;100.00
12969;BME280;6549;53.128;8.182;2023-09-07T05:07:26;101965.34;;;18.03;100.00
12969;BME280;6549;53.128;8.182;2023-09-07T05:10:27;101965.34;;;18.03;100.00
12969;BME280;6549;53.128;8.182;2023-09-07T05:13:27;101961.38;;;18.04;100.00
12969;BME280;6549;53.128;8.182;2023-09-07T05:16:28;101965.34;;;18.03;100.00
12969;BME280;6549;53.128;8.182;2023-09-07T05:19:28;101968.09;;;18.07;100.00
12969;BME280;6549;53.128;8.182;2023-09-07T05:22:28;101966.03;;;18.21;100.00
12969;BME280;6549;53.128;8.182;2023-09-07T05:25:29;101973.91;;;19.83;100.00
12969;BME280;6549;53.128;8.182;2023-09-07T05:28:29;101987.50;;;21.47;100.00
12969;BME280;6549;53.128;8.182;2023-09-07T05:31:30;101987.44;;;22.07;100.00
12969;BME280;6549;53.128;8.182;2023-09-07T05:34:30;101989.28;;;21.58;100.00
12969;BME280;6549;53.128;8.182;2023-09-07T05:37:30;101994.88;;;21.58;100.00
12969;BME280;6549;53.128;8.182;2023-09-07T05:40:35;101990.66;;;22.05;100.00
12969;BME280;6549;53.128;8.182;2023-09-07T05:43:36;101993.22;;;21.60;100.00
12969;BME280;6549;53.128;8.182;2023-09-07T05:46:36;101990.03;;;21.42;100.00
12969;BME280;6549;53.128;8.182;2023-09-07T05:49:36;101997.94;;;23.00;100.00
12969;BME280;6549;53.128;8.182;2023-09-07T05:52:37;102001.38;;;24.53;100.00
12969;BME280;6549;53.128;8.182;2023-09-07T05:55:37;102003.53;;;25.31;100.00
12969;BME280;6549;53.128;8.182;2023-09-07T05:58:37;102000.53;;;26.98;87.74
12969;BME280;6549;53.128;8.182;2023-09-07T06:01:38;102004.41;;;28.48;72.93
12969;BME280;6549;53.128;8.182;2023-09-07T06:04:39;102011.84;;;29.46;64.82
12969;BME280;6549;53.128;8.182;2023-09-07T06:07:39;102021.63;;;30.04;59.20
12969;BME280;6549;53.128;8.182;2023-09-07T06:10:39;102015.66;;;30.51;57.22
12969;BME280;6549;53.128;8.182;2023-09-07T06:13:39;102018.28;;;30.55;55.76
12969;BME280;6549;53.128;8.182;2023-09-07T06:16:40;102015.09;;;30.32;55.59
12969;BME280;6549;53.128;8.182;2023-09-07T06:19:40;102022.34;;;30.68;54.89
12969;BME280;6549;53.128;8.182;2023-09-07T06:22:41;102018.59;;;29.78;54.48
12969;BME280;6549;53.128;8.182;2023-09-07T06:25:41;102023.38;;;27.45;63.19
12969;BME280;6549;53.128;8.182;2023-09-07T06:28:41;102021.22;;;25.75;73.12
12969;BME280;6549;53.128;8.182;2023-09-07T06:31:42;102008.28;;;24.99;82.36
12969;BME280;6549;53.128;8.182;2023-09-07T06:34:42;102012.53;;;24.32;93.52
12969;BME280;6549;53.128;8.182;2023-09-07T06:37:42;102023.06;;;24.02;100.00
12969;BME280;6549;53.128;8.182;2023-09-07T06:40:49;102013.59;;;23.84;100.00
12969;BME280;6549;53.128;8.182;2023-09-07T06:43:50;102016.41;;;23.71;100.00
12969;BME280;6549;53.128;8.182;2023-09-07T06:46:50;102015.59;;;23.70;100.00
12969;BME280;6549;53.128;8.182;2023-09-07T06:49:50;102016.03;;;23.56;100.00
12969;BME280;6549;53.128;8.182;2023-09-07T06:52:51;102025.69;;;23.39;100.00
12969;BME280;6549;53.128;8.182;2023-09-07T06:55:59;102020.78;;;23.43;100.00
12969;BME280;6549;53.128;8.182;2023-09-07T06:59:00;102027.00;;;23.51;100.00
12969;BME280;6549;53.128;8.182;2023-09-07T07:02:01;102023.66;;;23.56;100.00
12969;BME280;6549;53.128;8.182;2023-09-07T07:05:01;102025.03;;;23.77;100.00
12969;BME280;6549;53.128;8.182;2023-09-07T07:08:03;102019.25;;;23.96;100.00
12969;BME280;6549;53.128;8.182;2023-09-07T07:11:03;102015.75;;;24.05;100.00
12969;BME280;6549;53.128;8.182;2023-09-07T07:14:03;102019.59;;;24.11;100.00
12969;BME280;6549;53.128;8.182;2023-09-07T07:17:04;102029.50;;;24.28;100.00
12969;BME280;6549;53.128;8.182;2023-09-07T07:20:05;102030.59;;;24.43;100.00
12969;BME280;6549;53.128;8.182;2023-09-07T07:23:05;102033.66;;;24.49;100.00
12969;BME280;6549;53.128;8.182;2023-09-07T07:26:06;102030.81;;;24.61;100.00
12969;BME280;6549;53.128;8.182;2023-09-07T07:29:07;102029.28;;;24.60;100.00
12969;BME280;6549;53.128;8.182;2023-09-07T07:32:07;102031.00;;;24.80;100.00
12969;BME280;6549;53.128;8.182;2023-09-07T07:35:07;102023.78;;;25.04;100.00
12969;BME280;6549;53.128;8.182;2023-09-07T07:38:08;102027.41;;;25.26;97.71
12969;BME280;6549;53.128;8.182;2023-09-07T07:41:08;102035.19;;;25.22;92.26
12969;BME280;6549;53.128;8.182;2023-09-07T07:44:09;102029.31;;;25.29;95.15
12969;BME280;6549;53.128;8.182;2023-09-07T07:47:09;102034.88;;;25.42;93.35
12969;BME280;6549;53.128;8.182;2023-09-07T07:50:09;102039.88;;;25.60;93.51
12969;BME280;6549;53.128;8.182;2023-09-07T07:53:10;102046.56;;;25.75;90.43
12969;BME280;6549;53.128;8.182;2023-09-07T07:56:17;102048.09;;;25.76;88.24
12969;BME280;6549;53.128;8.182;2023-09-07T07:59:18;102053.34;;;25.86;85.70
12969;BME280;6549;53.128;8.182;2023-09-07T08:02:18;102054.06;;;25.78;86.65
12969;BME280;6549;53.128;8.182;2023-09-07T08:05:18;102056.72;;;26.03;86.99
12969;BME280;6549;53.128;8.182;2023-09-07T08:08:19;102052.84;;;26.10;84.94
12969;BME280;6549;53.128;8.182;2023-09-07T08:11:19;102060.06;;;26.11;84.47
12969;BME280;6549;53.128;8.182;2023-09-07T08:14:21;102061.22;;;26.22;85.62
12969;BME280;6549;53.128;8.182;2023-09-07T08:17:22;102054.47;;;26.20;81.39
12969;BME280;6549;53.128;8.182;2023-09-07T08:20:25;102059.44;;;25.85;83.23
12969;BME280;6549;53.128;8.182;2023-09-07T08:23:26;102056.72;;;26.03;84.08
12969;BME280;6549;53.128;8.182;2023-09-07T08:26:26;102058.75;;;26.24;82.54
12969;BME280;6549;53.128;8.182;2023-09-07T08:29:27;102060.38;;;26.44;81.86
12969;BME280;6549;53.128;8.182;2023-09-07T08:32:27;102058.81;;;26.52;78.92
12969;BME280;6549;53.128;8.182;2023-09-07T08:35:27;102051.66;;;26.60;78.79
12969;BME280;6549;53.128;8.182;2023-09-07T08:38:28;102060.47;;;26.80;79.91
12969;BME280;6549;53.128;8.182;2023-09-07T08:41:31;102055.78;;;26.77;77.10
12969;BME280;6549;53.128;8.182;2023-09-07T08:44:33;102057.19;;;26.72;76.81
12969;BME280;6549;53.128;8.182;2023-09-07T08:47:34;102053.59;;;26.81;79.29
12969;BME280;6549;53.128;8.182;2023-09-07T08:50:36;102061.00;;;26.88;77.62
12969;BME280;6549;53.128;8.182;2023-09-07T08:53:39;102047.69;;;27.06;77.17
12969;BME280;6549;53.128;8.182;2023-09-07T08:56:40;102048.16;;;27.23;76.61
12969;BME280;6549;53.128;8.182;2023-09-07T08:59:41;102045.50;;;27.47;74.96
12969;BME280;6549;53.128;8.182;2023-09-07T09:02:42;102051.00;;;27.50;73.39
12969;BME280;6549;53.128;8.182;2023-09-07T09:05:43;102046.59;;;27.40;70.35
12969;BME280;6549;53.128;8.182;2023-09-07T09:08:47;102048.00;;;27.45;71.41
12969;BME280;6549;53.128;8.182;2023-09-07T09:11:51;102042.09;;;27.52;70.70
12969;BME280;6549;53.128;8.182;2023-09-07T09:14:52;102048.94;;;27.69;70.25
12969;BME280;6549;53.128;8.182;2023-09-07T09:17:53;102051.44;;;27.67;68.32
12969;BME280;6549;53.128;8.182;2023-09-07T09:20:55;102041.44;;;27.57;69.60
12969;BME280;6549;53.128;8.182;2023-09-07T09:23:57;102043.31;;;27.60;68.79
12969;BME280;6549;53.128;8.182;2023-09-07T09:26:57;102035.16;;;27.44;69.24
12969;BME280;6549;53.128;8.182;2023-09-07T09:29:57;102040.50;;;27.51;69.99
12969;BME280;6549;53.128;8.182;2023-09-07T09:32:58;102035.00;;;27.65;69.72
12969;BME280;6549;53.128;8.182;2023-09-07T09:35:59;102034.50;;;27.76;70.47
12969;BME280;6549;53.128;8.182;2023-09-07T09:38:59;102035.56;;;27.88;69.52
12969;BME280;6549;53.128;8.182;2023-09-07T09:42:00;102027.84;;;27.88;70.36
12969;BME280;6549;53.128;8.182;2023-09-07T09:45:01;102039.28;;;28.12;70.94
12969;BME280;6549;53.128;8.182;2023-09-07T09:48:05;102032.50;;;28.19;69.40
12969;BME280;6549;53.128;8.182;2023-09-07T09:51:05;102032.13;;;28.35;69.53
12969;BME280;6549;53.128;8.182;2023-09-07T09:54:08;102028.50;;;28.34;67.75
12969;BME280;6549;53.128;8.182;2023-09-07T09:57:09;102030.25;;;28.32;67.61
12969;BME280;6549;53.128;8.182;2023-09-07T10:00:10;102027.72;;;28.34;68.34
12969;BME280;6549;53.128;8.182;2023-09-07T10:03:24;102020.50;;;28.33;67.84
12969;BME280;6549;53.128;8.182;2023-09-07T10:06:28;102022.06;;;28.34;67.12
12969;BME280;6549;53.128;8.182;2023-09-07T10:09:32;102017.00;;;28.38;67.17
12969;BME280;6549;53.128;8.182;2023-09-07T10:12:40;102019.22;;;28.34;66.25
12969;BME280;6549;53.128;8.182;2023-09-07T10:15:40;102014.13;;;28.47;68.19
12969;BME280;6549;53.128;8.182;2023-09-07T10:18:41;102003.38;;;28.60;66.98
12969;BME280;6549;53.128;8.182;2023-09-07T10:21:41;102016.66;;;28.69;65.50
12969;BME280;6549;53.128;8.182;2023-09-07T10:24:42;102010.78;;;28.81;65.52
12969;BME280;6549;53.128;8.182;2023-09-07T10:27:46;102001.44;;;28.75;65.60
12969;BME280;6549;53.128;8.182;2023-09-07T10:30:58;102003.94;;;28.73;64.96
12969;BME280;6549;53.128;8.182;2023-09-07T10:34:11;102003.16;;;28.73;64.28
12969;BME280;6549;53.128;8.182;2023-09-07T10:37:13;101999.25;;;28.70;65.01
12969;BME280;6549;53.128;8.182;2023-09-07T10:40:21;101995.91;;;28.81;65.24
12969;BME280;6549;53.128;8.182;2023-09-07T10:43:22;101989.16;;;28.69;63.68
12969;BME280;6549;53.128;8.182;2023-09-07T10:46:23;101988.38;;;28.69;63.50
12969;BME280;6549;53.128;8.182;2023-09-07T10:49:24;101978.91;;;28.81;65.31
12969;BME280;6549;53.128;8.182;2023-09-07T10:52:24;101989.41;;;29.04;65.75
12969;BME280;6549;53.128;8.182;2023-09-07T10:55:25;101990.19;;;29.05;64.98
12969;BME280;6549;53.128;8.182;2023-09-07T10:58:32;101984.72;;;29.01;62.92
12969;BME280;6549;53.128;8.182;2023-09-07T11:01:33;101977.53;;;29.15;63.85
12969;BME280;6549;53.128;8.182;2023-09-07T11:04:33;101976.47;;;29.27;63.27
12969;BME280;6549;53.128;8.182;2023-09-07T11:07:34;101988.09;;;29.29;62.67
12969;BME280;6549;53.128;8.182;2023-09-07T11:10:36;101976.34;;;29.21;60.42
12969;BME280;6549;53.128;8.182;2023-09-07T11:13:36;101978.38;;;29.06;61.27
12969;BME280;6549;53.128;8.182;2023-09-07T11:16:37;101967.00;;;29.15;64.16
12969;BME280;6549;53.128;8.182;2023-09-07T11:19:37;101959.56;;;29.18;62.14
12969;BME280;6549;53.128;8.182;2023-09-07T11:22:37;101954.88;;;29.15;60.40
12969;BME280;6549;53.128;8.182;2023-09-07T11:25:39;101954.47;;;29.22;61.61
12969;BME280;6549;53.128;8.182;2023-09-07T11:28:41;101961.13;;;29.19;60.87
12969;BME280;6549;53.128;8.182;2023-09-07T11:31:42;101954.69;;;29.18;59.72
12969;BME280;6549;53.128;8.182;2023-09-07T11:34:50;101958.00;;;29.17;57.39
12969;BME280;6549;53.128;8.182;2023-09-07T11:37:52;101953.03;;;29.12;59.10
12969;BME280;6549;53.128;8.182;2023-09-07T11:40:52;101950.69;;;29.25;59.28
12969;BME280;6549;53.128;8.182;2023-09-07T11:43:53;101951.22;;;29.38;58.92
12969;BME280;6549;53.128;8.182;2023-09-07T11:46:53;101949.66;;;29.52;58.75
12969;BME280;6549;53.128;8.182;2023-09-07T11:49:54;101946.72;;;29.46;57.63
12969;BME280;6549;53.128;8.182;2023-09-07T11:52:54;101946.22;;;29.48;56.83
12969;BME280;6549;53.128;8.182;2023-09-07T11:55:55;101935.09;;;29.44;56.77
12969;BME280;6549;53.128;8.182;2023-09-07T11:58:56;101934.63;;;29.60;56.09
12969;BME280;6549;53.128;8.182;2023-09-07T12:01:57;101944.38;;;29.59;55.42
12969;BME280;6549;53.128;8.182;2023-09-07T12:04:57;101933.16;;;29.65;55.39
12969;BME280;6549;53.128;8.182;2023-09-07T12:08:00;101926.38;;;29.77;55.98
12969;BME280;6549;53.128;8.182;2023-09-07T12:11:00;101935.66;;;29.77;53.97
12969;BME280;6549;53.128;8.182;2023-09-07T12:14:01;101935.09;;;29.73;53.37
12969;BME280;6549;53.128;8.182;2023-09-07T12:17:02;101916.78;;;29.74;53.83
12969;BME280;6549;53.128;8.182;2023-09-07T12:20:03;101910.34;;;29.88;54.29
12969;BME280;6549;53.128;8.182;2023-09-07T12:23:05;101917.28;;;29.87;51.96
12969;BME280;6549;53.128;8.182;2023-09-07T12:26:06;101908.00;;;29.87;52.69
12969;BME280;6549;53.128;8.182;2023-09-07T12:29:07;101908.94;;;29.99;53.22
12969;BME280;6549;53.128;8.182;2023-09-07T12:32:08;101920.19;;;29.93;52.56
12969;BME280;6549;53.128;8.182;2023-09-07T12:35:08;101913.06;;;29.98;53.27
12969;BME280;6549;53.128;8.182;2023-09-07T12:38:08;101905.91;;;30.02;52.11
12969;BME280;6549;53.128;8.182;2023-09-07T12:41:11;101898.88;;;29.98;49.71
12969;BME280;6549;53.128;8.182;2023-09-07T12:44:12;101894.00;;;29.98;50.01
12969;BME280;6549;53.128;8.182;2023-09-07T12:47:13;101902.03;;;30.00;48.67
12969;BME280;6549;53.128;8.182;2023-09-07T12:50:14;101895.25;;;29.97;49.62
12969;BME280;6549;53.128;8.182;2023-09-07T12:53:14;101895.66;;;30.05;48.90
12969;BME280;6549;53.128;8.182;2023-09-07T12:56:15;101886.63;;;30.06;48.93
12969;BME280;6549;53.128;8.182;2023-09-07T12:59:16;101889.13;;;30.19;50.09
12969;BME280;6549;53.128;8.182;2023-09-07T13:02:16;101881.00;;;30.26;49.95
12969;BME280;6549;53.128;8.182;2023-09-07T13:05:17;101878.72;;;30.30;49.43
12969;BME280;6549;53.128;8.182;2023-09-07T13:08:18;101871.91;;;30.43;48.36
12969;BME280;6549;53.128;8.182;2023-09-07T13:11:18;101871.59;;;30.41;47.98
12969;BME280;6549;53.128;8.182;2023-09-07T13:14:19;101871.97;;;30.28;49.17
12969;BME280;6549;53.128;8.182;2023-09-07T13:17:20;101872.69;;;30.43;47.35
12969;BME280;6549;53.128;8.182;2023-09-07T13:20:20;101866.16;;;30.37;46.43
12969;BME280;6549;53.128;8.182;2023-09-07T13:23:21;101869.44;;;30.50;47.53
12969;BME280;6549;53.128;8.182;2023-09-07T13:26:22;101875.25;;;30.61;47.65
12969;BME280;6549;53.128;8.182;2023-09-07T13:29:22;101856.03;;;30.51;46.24
12969;BME280;6549;53.128;8.182;2023-09-07T13:32:23;101858.91;;;30.36;47.13
12969;BME280;6549;53.128;8.182;2023-09-07T13:35:25;101854.81;;;30.37;47.83
12969;BME280;6549;53.128;8.182;2023-09-07T13:38:27;101855.38;;;30.41;46.89
12969;BME280;6549;53.128;8.182;2023-09-07T13:41:30;101850.09;;;30.49;46.70
12969;BME280;6549;53.128;8.182;2023-09-07T13:44:31;101849.88;;;30.52;46.24
12969;BME280;6549;53.128;8.182;2023-09-07T13:47:31;101844.91;;;30.47;44.82
12969;BME280;6549;53.128;8.182;2023-09-07T13:50:32;101859.28;;;30.44;45.27
12969;BME280;6549;53.128;8.182;2023-09-07T13:53:32;101841.91;;;30.36;45.11
12969;BME280;6549;53.128;8.182;2023-09-07T13:56:33;101845.59;;;30.42;46.54
12969;BME280;6549;53.128;8.182;2023-09-07T13:59:34;101839.03;;;30.51;46.23
12969;BME280;6549;53.128;8.182;2023-09-07T14:02:36;101834.84;;;30.72;46.15
12969;BME280;6549;53.128;8.182;2023-09-07T14:05:36;101841.88;;;30.76;44.27
12969;BME280;6549;53.128;8.182;2023-09-07T14:08:37;101841.31;;;30.72;44.65
12969;BME280;6549;53.128;8.182;2023-09-07T14:11:37;101833.25;;;30.65;44.51
12969;BME280;6549;53.128;8.182;2023-09-07T14:14:38;101828.78;;;30.59;44.73
12969;BME280;6549;53.128;8.182;2023-09-07T14:17:38;101832.94;;;30.58;44.43
12969;BME280;6549;53.128;8.182;2023-09-07T14:20:38;101828.84;;;30.64;45.28
12969;BME280;6549;53.128;8.182;2023-09-07T14:23:38;101834.81;;;30.66;44.81
12969;BME280;6549;53.128;8.182;2023-09-07T14:26:39;101820.25;;;30.53;45.04
12969;BME280;6549;53.128;8.182;2023-09-07T14:29:39;101818.28;;;30.65;45.41
12969;BME280;6549;53.128;8.182;2023-09-07T14:32:39;101821.97;;;30.71;45.14
12969;BME280;6549;53.128;8.182;2023-09-07T14:35:40;101818.53;;;30.61;45.00
12969;BME280;6549;53.128;8.182;2023-09-07T14:38:40;101823.72;;;30.68;45.64
12969;BME280;6549;53.128;8.182;2023-09-07T14:41:43;101820.19;;;30.73;45.55
12969;BME280;6549;53.128;8.182;2023-09-07T14:44:44;101819.88;;;30.71;45.87
12969;BME280;6549;53.128;8.182;2023-09-07T14:47:44;101827.13;;;30.72;46.00
12969;BME280;6549;53.128;8.182;2023-09-07T14:50:45;101822.34;;;30.58;45.36
12969;BME280;6549;53.128;8.182;2023-09-07T14:53:45;101820.28;;;30.59;46.10
12969;BME280;6549;53.128;8.182;2023-09-07T14:56:46;101822.16;;;30.67;45.97
12969;BME280;6549;53.128;8.182;2023-09-07T14:59:46;101818.34;;;30.70;45.06
12969;BME280;6549;53.128;8.182;2023-09-07T15:02:46;101806.72;;;30.68;45.75
12969;BME280;6549;53.128;8.182;2023-09-07T15:05:47;101809.84;;;30.70;46.23
12969;BME280;6549;53.128;8.182;2023-09-07T15:08:47;101808.22;;;30.64;46.42
12969;BME280;6549;53.128;8.182;2023-09-07T15:11:49;101805.59;;;30.60;46.90
12969;BME280;6549;53.128;8.182;2023-09-07T15:14:49;101802.78;;;30.60;47.39
12969;BME280;6549;53.128;8.182;2023-09-07T15:17:50;101797.41;;;30.68;47.12
12969;BME280;6549;53.128;8.182;2023-09-07T15:20:50;101795.38;;;30.68;47.62
12969;BME280;6549;53.128;8.182;2023-09-07T15:23:51;101794.81;;;30.64;46.97
12969;BME280;6549;53.128;8.182;2023-09-07T15:26:52;101803.25;;;30.59;47.04
12969;BME280;6549;53.128;8.182;2023-09-07T15:29:52;101797.25;;;30.51;46.42
12969;BME280;6549;53.128;8.182;2023-09-07T15:32:52;101795.13;;;30.46;46.59
12969;BME280;6549;53.128;8.182;2023-09-07T15:35:53;101791.53;;;30.46;46.93
12969;BME280;6549;53.128;8.182;2023-09-07T15:38:53;101788.69;;;30.46;46.88
12969;BME280;6549;53.128;8.182;2023-09-07T15:41:54;101793.13;;;30.32;47.41
12969;BME280;6549;53.128;8.182;2023-09-07T15:44:54;101785.63;;;30.29;47.79
12969;BME280;6549;53.128;8.182;2023-09-07T15:47:55;101782.97;;;30.20;47.78
12969;BME280;6549;53.128;8.182;2023-09-07T15:50:55;101778.94;;;30.06;48.00
12969;BME280;6549;53.128;8.182;2023-09-07T15:53:56;101788.66;;;30.00;48.93